sensor_id;sensor_type;location;lat;lon;timestamp;temperature;humidity
82851;DHT22;72609;45.768;4.884;2023-12-28T00:00:26;10.00;68.30
82851;DHT22;72609;45.768;4.884;2023-12-28T00:02:52;10.00;67.90
82851;DHT22;72609;45.768;4.884;2023-12-28T00:05:17;10.10;67.90
82851;DHT22;72609;45.768;4.884;2023-12-28T00:07:43;10.00;67.80
82851;DHT22;72609;45.768;4.884;2023-12-28T00:10:09;10.00;67.70
82851;DHT22;72609;45.768;4.884;2023-12-28T00:12:35;10.00;67.80
82851;DHT22;72609;45.768;4.884;2023-12-28T00:15:00;10.00;67.80
82851;DHT22;72609;45.768;4.884;2023-12-28T00:17:26;10.00;67.50
82851;DHT22;72609;45.768;4.884;2023-12-28T00:19:51;10.00;67.50
82851;DHT22;72609;45.768;4.884;2023-12-28T00:22:17;10.00;67.80
82851;DHT22;72609;45.768;4.884;2023-12-28T00:24:43;10.00;68.10
82851;DHT22;72609;45.768;4.884;2023-12-28T00:27:08;10.00;68.10
82851;DHT22;72609;45.768;4.884;2023-12-28T00:29:34;9.90;68.20
82851;DHT22;72609;45.768;4.884;2023-12-28T00:32:06;9.90;68.50
82851;DHT22;72609;45.768;4.884;2023-12-28T00:34:32;9.90;68.50
82851;DHT22;72609;45.768;4.884;2023-12-28T00:36:58;9.90;68.30
82851;DHT22;72609;45.768;4.884;2023-12-28T00:39:23;9.90;68.50
82851;DHT22;72609;45.768;4.884;2023-12-28T00:41:49;9.90;68.70
82851;DHT22;72609;45.768;4.884;2023-12-28T00:44:14;9.90;68.80
82851;DHT22;72609;45.768;4.884;2023-12-28T00:46:40;9.90;68.90
82851;DHT22;72609;45.768;4.884;2023-12-28T00:49:06;9.90;69.10
82851;DHT22;72609;45.768;4.884;2023-12-28T00:51:31;9.80;69.20
82851;DHT22;72609;45.768;4.884;2023-12-28T00:53:57;9.80;69.30
82851;DHT22;72609;45.768;4.884;2023-12-28T00:56:23;9.80;69.40
82851;DHT22;72609;45.768;4.884;2023-12-28T00:58:48;9.80;69.60
82851;DHT22;72609;45.768;4.884;2023-12-28T01:01:14;9.80;69.70
82851;DHT22;72609;45.768;4.884;2023-12-28T01:03:40;9.80;70.00
82851;DHT22;72609;45.768;4.884;2023-12-28T01:06:06;9.80;70.30
82851;DHT22;72609;45.768;4.884;2023-12-28T01:08:32;9.80;70.20
82851;DHT22;72609;45.768;4.884;2023-12-28T01:10:59;9.70;70.50
82851;DHT22;72609;45.768;4.884;2023-12-28T01:13:25;9.70;70.50
82851;DHT22;72609;45.768;4.884;2023-12-28T01:15:50;9.70;70.60
82851;DHT22;72609;45.768;4.884;2023-12-28T01:18:16;9.60;70.70
82851;DHT22;72609;45.768;4.884;2023-12-28T01:20:42;9.70;70.90
82851;DHT22;72609;45.768;4.884;2023-12-28T01:23:07;9.60;71.40
82851;DHT22;72609;45.768;4.884;2023-12-28T01:25:33;9.60;71.30
82851;DHT22;72609;45.768;4.884;2023-12-28T01:27:59;9.60;71.60
82851;DHT22;72609;45.768;4.884;2023-12-28T01:30:25;9.60;72.00
82851;DHT22;72609;45.768;4.884;2023-12-28T01:32:51;9.50;72.30
82851;DHT22;72609;45.768;4.884;2023-12-28T01:35:17;9.60;72.30
82851;DHT22;72609;45.768;4.884;2023-12-28T01:37:43;9.60;72.10
82851;DHT22;72609;45.768;4.884;2023-12-28T01:40:09;9.60;72.30
82851;DHT22;72609;45.768;4.884;2023-12-28T01:42:34;9.60;72.10
82851;DHT22;72609;45.768;4.884;2023-12-28T01:45:01;9.50;72.20
82851;DHT22;72609;45.768;4.884;2023-12-28T01:47:27;9.50;72.20
82851;DHT22;72609;45.768;4.884;2023-12-28T01:49:54;9.50;72.10
82851;DHT22;72609;45.768;4.884;2023-12-28T01:52:20;9.60;72.00
82851;DHT22;72609;45.768;4.884;2023-12-28T01:54:46;9.50;72.00
82851;DHT22;72609;45.768;4.884;2023-12-28T01:57:13;9.50;72.00
82851;DHT22;72609;45.768;4.884;2023-12-28T01:59:39;9.50;72.10
82851;DHT22;72609;45.768;4.884;2023-12-28T02:02:05;9.50;72.50
82851;DHT22;72609;45.768;4.884;2023-12-28T02:04:31;9.50;72.10
82851;DHT22;72609;45.768;4.884;2023-12-28T02:06:59;9.50;72.20
82851;DHT22;72609;45.768;4.884;2023-12-28T02:09:25;9.40;72.30
82851;DHT22;72609;45.768;4.884;2023-12-28T02:11:51;9.40;72.40
82851;DHT22;72609;45.768;4.884;2023-12-28T02:14:17;9.40;72.50
82851;DHT22;72609;45.768;4.884;2023-12-28T02:16:47;9.40;72.50
82851;DHT22;72609;45.768;4.884;2023-12-28T02:21:57;9.20;73.40
82851;DHT22;72609;45.768;4.884;2023-12-28T02:24:24;9.20;73.40
82851;DHT22;72609;45.768;4.884;2023-12-28T02:26:50;9.10;73.60
82851;DHT22;72609;45.768;4.884;2023-12-28T02:29:15;9.10;73.30
82851;DHT22;72609;45.768;4.884;2023-12-28T02:31:47;9.20;73.40
82851;DHT22;72609;45.768;4.884;2023-12-28T02:34:21;9.20;73.60
82851;DHT22;72609;45.768;4.884;2023-12-28T02:36:50;9.10;73.70
82851;DHT22;72609;45.768;4.884;2023-12-28T02:39:16;9.10;73.70
82851;DHT22;72609;45.768;4.884;2023-12-28T02:41:44;9.10;74.20
82851;DHT22;72609;45.768;4.884;2023-12-28T02:44:09;9.10;73.80
82851;DHT22;72609;45.768;4.884;2023-12-28T02:46:35;9.10;73.80
82851;DHT22;72609;45.768;4.884;2023-12-28T02:49:01;9.10;73.70
82851;DHT22;72609;45.768;4.884;2023-12-28T02:51:26;9.10;73.80
82851;DHT22;72609;45.768;4.884;2023-12-28T02:53:52;9.00;74.40
82851;DHT22;72609;45.768;4.884;2023-12-28T02:56:18;9.00;74.10
82851;DHT22;72609;45.768;4.884;2023-12-28T02:58:43;9.00;74.80
82851;DHT22;72609;45.768;4.884;2023-12-28T03:01:09;9.00;75.40
82851;DHT22;72609;45.768;4.884;2023-12-28T03:03:34;8.90;75.80
82851;DHT22;72609;45.768;4.884;2023-12-28T03:06:00;8.90;75.60
82851;DHT22;72609;45.768;4.884;2023-12-28T03:08:26;8.90;75.30
82851;DHT22;72609;45.768;4.884;2023-12-28T03:10:51;9.00;75.00
82851;DHT22;72609;45.768;4.884;2023-12-28T03:13:18;9.00;74.90
82851;DHT22;72609;45.768;4.884;2023-12-28T03:15:43;9.00;75.40
82851;DHT22;72609;45.768;4.884;2023-12-28T03:18:09;8.90;75.00
82851;DHT22;72609;45.768;4.884;2023-12-28T03:20:34;8.90;74.90
82851;DHT22;72609;45.768;4.884;2023-12-28T03:23:00;8.90;75.10
82851;DHT22;72609;45.768;4.884;2023-12-28T03:25:26;8.80;75.10
82851;DHT22;72609;45.768;4.884;2023-12-28T03:27:51;8.80;75.20
82851;DHT22;72609;45.768;4.884;2023-12-28T03:30:17;8.80;75.00
82851;DHT22;72609;45.768;4.884;2023-12-28T03:32:42;8.80;75.30
82851;DHT22;72609;45.768;4.884;2023-12-28T03:35:08;8.80;75.10
82851;DHT22;72609;45.768;4.884;2023-12-28T03:37:34;8.80;75.10
82851;DHT22;72609;45.768;4.884;2023-12-28T03:40:00;8.80;75.10
82851;DHT22;72609;45.768;4.884;2023-12-28T03:42:26;8.80;75.50
82851;DHT22;72609;45.768;4.884;2023-12-28T03:44:51;8.80;75.20
82851;DHT22;72609;45.768;4.884;2023-12-28T03:47:17;8.80;75.20
82851;DHT22;72609;45.768;4.884;2023-12-28T03:49:43;8.70;75.80
82851;DHT22;72609;45.768;4.884;2023-12-28T03:52:08;8.70;75.20
82851;DHT22;72609;45.768;4.884;2023-12-28T03:54:34;8.70;75.50
82851;DHT22;72609;45.768;4.884;2023-12-28T03:56:59;8.70;75.70
82851;DHT22;72609;45.768;4.884;2023-12-28T03:59:25;8.60;75.70
82851;DHT22;72609;45.768;4.884;2023-12-28T04:01:50;8.50;75.70
82851;DHT22;72609;45.768;4.884;2023-12-28T04:04:16;8.50;75.70
82851;DHT22;72609;45.768;4.884;2023-12-28T04:06:42;8.30;76.60
82851;DHT22;72609;45.768;4.884;2023-12-28T04:09:11;8.30;76.40
82851;DHT22;72609;45.768;4.884;2023-12-28T04:11:37;8.30;76.40
82851;DHT22;72609;45.768;4.884;2023-12-28T04:14:03;8.40;76.10
82851;DHT22;72609;45.768;4.884;2023-12-28T04:16:29;8.40;76.30
82851;DHT22;72609;45.768;4.884;2023-12-28T04:18:54;8.30;76.70
82851;DHT22;72609;45.768;4.884;2023-12-28T04:21:20;8.20;76.90
82851;DHT22;72609;45.768;4.884;2023-12-28T04:23:45;8.20;77.00
82851;DHT22;72609;45.768;4.884;2023-12-28T04:26:11;8.20;77.00
82851;DHT22;72609;45.768;4.884;2023-12-28T04:28:37;8.20;76.90
82851;DHT22;72609;45.768;4.884;2023-12-28T04:31:04;8.20;76.70
82851;DHT22;72609;45.768;4.884;2023-12-28T04:33:29;8.20;77.70
82851;DHT22;72609;45.768;4.884;2023-12-28T04:35:55;8.20;77.30
82851;DHT22;72609;45.768;4.884;2023-12-28T04:38:21;8.30;77.20
82851;DHT22;72609;45.768;4.884;2023-12-28T04:40:46;8.20;77.10
82851;DHT22;72609;45.768;4.884;2023-12-28T04:43:12;8.20;77.20
82851;DHT22;72609;45.768;4.884;2023-12-28T04:45:37;8.20;77.40
82851;DHT22;72609;45.768;4.884;2023-12-28T04:48:04;8.20;77.00
82851;DHT22;72609;45.768;4.884;2023-12-28T04:50:29;8.30;77.10
82851;DHT22;72609;45.768;4.884;2023-12-28T04:52:55;8.30;77.10
82851;DHT22;72609;45.768;4.884;2023-12-28T04:55:21;8.30;76.70
82851;DHT22;72609;45.768;4.884;2023-12-28T04:57:46;8.20;77.00
82851;DHT22;72609;45.768;4.884;2023-12-28T05:00:12;8.20;76.80
82851;DHT22;72609;45.768;4.884;2023-12-28T05:02:38;8.20;76.80
82851;DHT22;72609;45.768;4.884;2023-12-28T05:05:03;8.20;76.80
82851;DHT22;72609;45.768;4.884;2023-12-28T05:07:29;8.20;76.60
82851;DHT22;72609;45.768;4.884;2023-12-28T05:09:55;8.20;77.00
82851;DHT22;72609;45.768;4.884;2023-12-28T05:12:20;8.00;77.80
82851;DHT22;72609;45.768;4.884;2023-12-28T05:14:46;7.90;77.70
82851;DHT22;72609;45.768;4.884;2023-12-28T05:17:11;7.90;77.80
82851;DHT22;72609;45.768;4.884;2023-12-28T05:19:37;7.90;78.20
82851;DHT22;72609;45.768;4.884;2023-12-28T05:22:03;7.90;77.90
82851;DHT22;72609;45.768;4.884;2023-12-28T05:24:32;7.90;77.90
82851;DHT22;72609;45.768;4.884;2023-12-28T05:26:57;8.00;77.70
82851;DHT22;72609;45.768;4.884;2023-12-28T05:29:23;8.00;77.30
82851;DHT22;72609;45.768;4.884;2023-12-28T05:31:49;8.00;77.70
82851;DHT22;72609;45.768;4.884;2023-12-28T05:34:14;7.90;77.70
82851;DHT22;72609;45.768;4.884;2023-12-28T05:36:41;7.90;77.90
82851;DHT22;72609;45.768;4.884;2023-12-28T05:39:07;7.90;78.00
82851;DHT22;72609;45.768;4.884;2023-12-28T05:41:35;7.90;78.10
82851;DHT22;72609;45.768;4.884;2023-12-28T05:44:00;7.80;78.00
82851;DHT22;72609;45.768;4.884;2023-12-28T05:46:26;7.90;78.20
82851;DHT22;72609;45.768;4.884;2023-12-28T05:48:51;7.80;78.40
82851;DHT22;72609;45.768;4.884;2023-12-28T05:51:17;7.90;78.40
82851;DHT22;72609;45.768;4.884;2023-12-28T05:53:44;7.80;78.80
82851;DHT22;72609;45.768;4.884;2023-12-28T05:56:09;7.80;79.10
82851;DHT22;72609;45.768;4.884;2023-12-28T05:58:35;7.70;79.60
82851;DHT22;72609;45.768;4.884;2023-12-28T06:01:02;7.70;80.20
82851;DHT22;72609;45.768;4.884;2023-12-28T06:03:30;7.70;79.40
82851;DHT22;72609;45.768;4.884;2023-12-28T06:05:56;7.80;79.40
82851;DHT22;72609;45.768;4.884;2023-12-28T06:08:22;7.80;79.10
82851;DHT22;72609;45.768;4.884;2023-12-28T06:10:47;7.80;79.80
82851;DHT22;72609;45.768;4.884;2023-12-28T06:13:13;7.80;81.20
82851;DHT22;72609;45.768;4.884;2023-12-28T06:15:38;7.80;80.90
82851;DHT22;72609;45.768;4.884;2023-12-28T06:18:04;7.80;81.50
82851;DHT22;72609;45.768;4.884;2023-12-28T06:20:30;7.80;80.70
82851;DHT22;72609;45.768;4.884;2023-12-28T06:22:55;7.80;81.00
82851;DHT22;72609;45.768;4.884;2023-12-28T06:25:21;7.80;81.30
82851;DHT22;72609;45.768;4.884;2023-12-28T06:27:46;7.80;83.50
82851;DHT22;72609;45.768;4.884;2023-12-28T06:30:12;7.70;84.30
82851;DHT22;72609;45.768;4.884;2023-12-28T06:32:38;7.70;83.30
82851;DHT22;72609;45.768;4.884;2023-12-28T06:35:05;7.70;84.80
82851;DHT22;72609;45.768;4.884;2023-12-28T06:37:31;7.60;84.80
82851;DHT22;72609;45.768;4.884;2023-12-28T06:39:56;7.70;83.60
82851;DHT22;72609;45.768;4.884;2023-12-28T06:42:22;7.80;83.20
82851;DHT22;72609;45.768;4.884;2023-12-28T06:44:47;7.80;82.20
82851;DHT22;72609;45.768;4.884;2023-12-28T06:47:13;7.90;81.90
82851;DHT22;72609;45.768;4.884;2023-12-28T06:49:38;7.90;81.90
82851;DHT22;72609;45.768;4.884;2023-12-28T06:52:04;7.80;82.70
82851;DHT22;72609;45.768;4.884;2023-12-28T06:54:30;7.70;82.30
82851;DHT22;72609;45.768;4.884;2023-12-28T06:56:55;7.80;84.10
82851;DHT22;72609;45.768;4.884;2023-12-28T06:59:21;7.80;82.50
82851;DHT22;72609;45.768;4.884;2023-12-28T07:01:46;7.80;82.70
82851;DHT22;72609;45.768;4.884;2023-12-28T07:04:13;7.80;83.50
82851;DHT22;72609;45.768;4.884;2023-12-28T07:06:39;7.80;84.00
82851;DHT22;72609;45.768;4.884;2023-12-28T07:09:05;7.70;85.00
82851;DHT22;72609;45.768;4.884;2023-12-28T07:11:31;7.70;84.40
82851;DHT22;72609;45.768;4.884;2023-12-28T07:13:56;7.60;83.70
82851;DHT22;72609;45.768;4.884;2023-12-28T07:16:22;7.60;85.40
82851;DHT22;72609;45.768;4.884;2023-12-28T07:18:48;7.50;85.80
82851;DHT22;72609;45.768;4.884;2023-12-28T07:21:13;7.50;84.90
82851;DHT22;72609;45.768;4.884;2023-12-28T07:23:39;7.40;86.00
82851;DHT22;72609;45.768;4.884;2023-12-28T07:26:05;7.40;85.10
82851;DHT22;72609;45.768;4.884;2023-12-28T07:28:30;7.50;85.30
82851;DHT22;72609;45.768;4.884;2023-12-28T07:30:56;7.60;84.20
82851;DHT22;72609;45.768;4.884;2023-12-28T07:33:22;7.70;83.90
82851;DHT22;72609;45.768;4.884;2023-12-28T07:35:48;7.80;83.20
82851;DHT22;72609;45.768;4.884;2023-12-28T07:38:13;7.90;83.00
82851;DHT22;72609;45.768;4.884;2023-12-28T07:40:39;7.90;82.60
82851;DHT22;72609;45.768;4.884;2023-12-28T07:43:05;8.00;82.30
82851;DHT22;72609;45.768;4.884;2023-12-28T07:45:31;8.00;82.30
82851;DHT22;72609;45.768;4.884;2023-12-28T07:47:58;8.00;82.70
82851;DHT22;72609;45.768;4.884;2023-12-28T07:50:24;8.00;82.10
82851;DHT22;72609;45.768;4.884;2023-12-28T07:52:50;7.80;84.20
82851;DHT22;72609;45.768;4.884;2023-12-28T07:55:15;7.70;84.70
82851;DHT22;72609;45.768;4.884;2023-12-28T07:57:41;7.70;86.30
82851;DHT22;72609;45.768;4.884;2023-12-28T08:00:07;7.70;86.00
82851;DHT22;72609;45.768;4.884;2023-12-28T08:02:33;7.70;85.90
82851;DHT22;72609;45.768;4.884;2023-12-28T08:04:59;7.80;85.10
82851;DHT22;72609;45.768;4.884;2023-12-28T08:07:24;7.80;84.70
82851;DHT22;72609;45.768;4.884;2023-12-28T08:09:50;7.90;84.00
82851;DHT22;72609;45.768;4.884;2023-12-28T08:12:16;8.00;84.30
82851;DHT22;72609;45.768;4.884;2023-12-28T08:14:43;8.00;83.60
82851;DHT22;72609;45.768;4.884;2023-12-28T08:17:08;7.90;83.50
82851;DHT22;72609;45.768;4.884;2023-12-28T08:19:34;7.90;83.60
82851;DHT22;72609;45.768;4.884;2023-12-28T08:21:59;7.90;84.10
82851;DHT22;72609;45.768;4.884;2023-12-28T08:24:25;7.90;84.50
82851;DHT22;72609;45.768;4.884;2023-12-28T08:26:51;7.90;84.00
82851;DHT22;72609;45.768;4.884;2023-12-28T08:29:16;7.90;84.00
82851;DHT22;72609;45.768;4.884;2023-12-28T08:31:43;7.90;84.20
82851;DHT22;72609;45.768;4.884;2023-12-28T08:34:09;7.90;84.20
82851;DHT22;72609;45.768;4.884;2023-12-28T08:36:34;7.90;85.50
82851;DHT22;72609;45.768;4.884;2023-12-28T08:39:00;7.90;84.20
82851;DHT22;72609;45.768;4.884;2023-12-28T08:41:25;8.00;83.80
82851;DHT22;72609;45.768;4.884;2023-12-28T08:43:52;8.10;83.70
82851;DHT22;72609;45.768;4.884;2023-12-28T08:46:20;8.10;83.60
82851;DHT22;72609;45.768;4.884;2023-12-28T08:48:45;8.10;84.10
82851;DHT22;72609;45.768;4.884;2023-12-28T08:51:11;8.10;84.20
82851;DHT22;72609;45.768;4.884;2023-12-28T08:53:39;8.00;84.80
82851;DHT22;72609;45.768;4.884;2023-12-28T08:56:21;8.00;84.40
82851;DHT22;72609;45.768;4.884;2023-12-28T08:58:47;8.10;84.60
82851;DHT22;72609;45.768;4.884;2023-12-28T09:03:43;8.20;83.90
82851;DHT22;72609;45.768;4.884;2023-12-28T09:06:08;8.30;84.70
82851;DHT22;72609;45.768;4.884;2023-12-28T09:08:34;8.20;84.50
82851;DHT22;72609;45.768;4.884;2023-12-28T09:11:00;8.20;84.40
82851;DHT22;72609;45.768;4.884;2023-12-28T09:13:25;8.20;85.40
82851;DHT22;72609;45.768;4.884;2023-12-28T09:15:51;8.20;85.80
82851;DHT22;72609;45.768;4.884;2023-12-28T09:18:17;8.20;85.10
82851;DHT22;72609;45.768;4.884;2023-12-28T09:20:42;8.30;84.60
82851;DHT22;72609;45.768;4.884;2023-12-28T09:23:08;8.40;84.40
82851;DHT22;72609;45.768;4.884;2023-12-28T09:25:36;8.50;84.10
82851;DHT22;72609;45.768;4.884;2023-12-28T09:28:04;8.60;83.80
82851;DHT22;72609;45.768;4.884;2023-12-28T09:30:30;8.70;83.60
82851;DHT22;72609;45.768;4.884;2023-12-28T09:32:55;8.70;83.40
82851;DHT22;72609;45.768;4.884;2023-12-28T09:35:21;8.70;83.50
82851;DHT22;72609;45.768;4.884;2023-12-28T09:37:46;8.70;83.70
82851;DHT22;72609;45.768;4.884;2023-12-28T09:40:12;8.80;83.60
82851;DHT22;72609;45.768;4.884;2023-12-28T09:42:47;8.80;84.40
82851;DHT22;72609;45.768;4.884;2023-12-28T09:45:15;8.90;84.00
82851;DHT22;72609;45.768;4.884;2023-12-28T09:47:41;8.90;83.90
82851;DHT22;72609;45.768;4.884;2023-12-28T09:50:10;9.00;85.60
82851;DHT22;72609;45.768;4.884;2023-12-28T09:52:36;9.00;84.60
82851;DHT22;72609;45.768;4.884;2023-12-28T09:55:01;9.10;85.30
82851;DHT22;72609;45.768;4.884;2023-12-28T09:57:28;9.10;85.10
82851;DHT22;72609;45.768;4.884;2023-12-28T09:59:53;9.20;85.70
82851;DHT22;72609;45.768;4.884;2023-12-28T10:02:20;9.20;85.60
82851;DHT22;72609;45.768;4.884;2023-12-28T10:04:45;9.30;86.60
82851;DHT22;72609;45.768;4.884;2023-12-28T10:07:11;9.30;86.60
82851;DHT22;72609;45.768;4.884;2023-12-28T10:09:36;9.30;86.70
82851;DHT22;72609;45.768;4.884;2023-12-28T10:12:02;9.40;86.40
82851;DHT22;72609;45.768;4.884;2023-12-28T10:14:29;9.50;85.60
82851;DHT22;72609;45.768;4.884;2023-12-28T10:16:54;9.50;85.10
82851;DHT22;72609;45.768;4.884;2023-12-28T10:19:23;9.60;84.40
82851;DHT22;72609;45.768;4.884;2023-12-28T10:21:50;9.70;85.10
82851;DHT22;72609;45.768;4.884;2023-12-28T10:24:15;9.70;84.10
82851;DHT22;72609;45.768;4.884;2023-12-28T10:26:41;9.70;83.90
82851;DHT22;72609;45.768;4.884;2023-12-28T10:29:07;9.80;84.00
82851;DHT22;72609;45.768;4.884;2023-12-28T10:31:33;9.80;84.30
82851;DHT22;72609;45.768;4.884;2023-12-28T10:34:00;9.80;84.90
82851;DHT22;72609;45.768;4.884;2023-12-28T10:36:28;9.80;84.70
82851;DHT22;72609;45.768;4.884;2023-12-28T10:38:54;9.90;84.50
82851;DHT22;72609;45.768;4.884;2023-12-28T10:41:21;9.80;84.50
82851;DHT22;72609;45.768;4.884;2023-12-28T10:44:04;9.90;84.50
82851;DHT22;72609;45.768;4.884;2023-12-28T10:46:31;9.90;85.40
82851;DHT22;72609;45.768;4.884;2023-12-28T10:49:08;9.90;84.70
82851;DHT22;72609;45.768;4.884;2023-12-28T10:51:36;10.00;84.80
82851;DHT22;72609;45.768;4.884;2023-12-28T10:56:48;10.10;84.30
82851;DHT22;72609;45.768;4.884;2023-12-28T10:59:28;10.30;83.70
82851;DHT22;72609;45.768;4.884;2023-12-28T11:01:59;10.30;83.40
82851;DHT22;72609;45.768;4.884;2023-12-28T11:04:41;10.30;83.00
82851;DHT22;72609;45.768;4.884;2023-12-28T11:07:10;10.40;82.30
82851;DHT22;72609;45.768;4.884;2023-12-28T11:09:38;10.50;82.20
82851;DHT22;72609;45.768;4.884;2023-12-28T11:12:08;10.50;82.10
82851;DHT22;72609;45.768;4.884;2023-12-28T11:14:36;10.50;81.90
82851;DHT22;72609;45.768;4.884;2023-12-28T11:17:04;10.60;81.70
82851;DHT22;72609;45.768;4.884;2023-12-28T11:19:31;10.60;81.80
82851;DHT22;72609;45.768;4.884;2023-12-28T11:21:58;10.70;81.50
82851;DHT22;72609;45.768;4.884;2023-12-28T11:24:26;10.90;80.70
82851;DHT22;72609;45.768;4.884;2023-12-28T11:26:53;10.90;80.80
82851;DHT22;72609;45.768;4.884;2023-12-28T11:29:22;11.00;80.60
82851;DHT22;72609;45.768;4.884;2023-12-28T11:31:53;11.00;80.60
82851;DHT22;72609;45.768;4.884;2023-12-28T11:34:19;10.90;80.80
82851;DHT22;72609;45.768;4.884;2023-12-28T11:36:51;11.00;81.20
82851;DHT22;72609;45.768;4.884;2023-12-28T11:39:33;11.00;80.40
82851;DHT22;72609;45.768;4.884;2023-12-28T11:42:06;11.10;80.50
82851;DHT22;72609;45.768;4.884;2023-12-28T11:44:43;11.10;80.70
82851;DHT22;72609;45.768;4.884;2023-12-28T11:47:30;11.10;80.60
82851;DHT22;72609;45.768;4.884;2023-12-28T11:50:06;11.20;80.10
82851;DHT22;72609;45.768;4.884;2023-12-28T11:52:32;11.30;79.90
82851;DHT22;72609;45.768;4.884;2023-12-28T11:54:59;11.30;79.60
82851;DHT22;72609;45.768;4.884;2023-12-28T11:57:26;11.40;79.50
82851;DHT22;72609;45.768;4.884;2023-12-28T11:59:59;11.50;78.90
82851;DHT22;72609;45.768;4.884;2023-12-28T12:02:25;11.60;78.40
82851;DHT22;72609;45.768;4.884;2023-12-28T12:04:53;11.70;78.20
82851;DHT22;72609;45.768;4.884;2023-12-28T12:07:18;11.60;78.50
82851;DHT22;72609;45.768;4.884;2023-12-28T12:09:44;11.60;78.70
82851;DHT22;72609;45.768;4.884;2023-12-28T12:12:10;11.70;78.50
82851;DHT22;72609;45.768;4.884;2023-12-28T12:14:35;11.70;78.50
82851;DHT22;72609;45.768;4.884;2023-12-28T12:17:01;11.70;78.30
82851;DHT22;72609;45.768;4.884;2023-12-28T12:19:28;11.70;78.60
82851;DHT22;72609;45.768;4.884;2023-12-28T12:21:54;11.70;78.90
82851;DHT22;72609;45.768;4.884;2023-12-28T12:24:21;11.60;79.00
82851;DHT22;72609;45.768;4.884;2023-12-28T12:26:47;11.60;79.40
82851;DHT22;72609;45.768;4.884;2023-12-28T12:29:13;11.60;79.30
82851;DHT22;72609;45.768;4.884;2023-12-28T12:31:43;11.50;79.70
82851;DHT22;72609;45.768;4.884;2023-12-28T12:34:10;11.50;79.70
82851;DHT22;72609;45.768;4.884;2023-12-28T12:36:36;11.50;79.40
82851;DHT22;72609;45.768;4.884;2023-12-28T12:39:02;11.40;79.60
82851;DHT22;72609;45.768;4.884;2023-12-28T12:41:30;11.40;79.70
82851;DHT22;72609;45.768;4.884;2023-12-28T12:43:56;11.50;79.50
82851;DHT22;72609;45.768;4.884;2023-12-28T12:46:22;11.60;79.10
82851;DHT22;72609;45.768;4.884;2023-12-28T12:48:59;11.60;78.80
82851;DHT22;72609;45.768;4.884;2023-12-28T12:51:26;11.50;78.80
82851;DHT22;72609;45.768;4.884;2023-12-28T12:53:58;11.60;78.60
82851;DHT22;72609;45.768;4.884;2023-12-28T12:56:27;11.60;78.60
82851;DHT22;72609;45.768;4.884;2023-12-28T12:58:54;11.60;78.30
82851;DHT22;72609;45.768;4.884;2023-12-28T13:01:20;11.60;78.30
82851;DHT22;72609;45.768;4.884;2023-12-28T13:03:46;11.70;78.00
82851;DHT22;72609;45.768;4.884;2023-12-28T13:06:12;11.70;78.00
82851;DHT22;72609;45.768;4.884;2023-12-28T13:08:37;11.70;78.20
82851;DHT22;72609;45.768;4.884;2023-12-28T13:11:03;11.70;78.00
82851;DHT22;72609;45.768;4.884;2023-12-28T13:13:32;11.70;77.90
82851;DHT22;72609;45.768;4.884;2023-12-28T13:15:58;11.80;77.90
82851;DHT22;72609;45.768;4.884;2023-12-28T13:18:23;11.80;78.00
82851;DHT22;72609;45.768;4.884;2023-12-28T13:20:49;11.70;78.20
82851;DHT22;72609;45.768;4.884;2023-12-28T13:23:14;11.70;78.60
82851;DHT22;72609;45.768;4.884;2023-12-28T13:25:40;11.60;78.60
82851;DHT22;72609;45.768;4.884;2023-12-28T13:28:06;11.70;78.20
82851;DHT22;72609;45.768;4.884;2023-12-28T13:30:32;11.70;78.20
82851;DHT22;72609;45.768;4.884;2023-12-28T13:32:57;11.70;78.10
82851;DHT22;72609;45.768;4.884;2023-12-28T13:35:23;11.80;78.10
82851;DHT22;72609;45.768;4.884;2023-12-28T13:37:49;11.80;78.20
82851;DHT22;72609;45.768;4.884;2023-12-28T13:40:14;11.80;78.00
82851;DHT22;72609;45.768;4.884;2023-12-28T13:42:41;11.70;78.10
82851;DHT22;72609;45.768;4.884;2023-12-28T13:45:07;11.80;78.10
82851;DHT22;72609;45.768;4.884;2023-12-28T13:47:33;11.80;77.80
82851;DHT22;72609;45.768;4.884;2023-12-28T13:49:58;11.80;77.90
82851;DHT22;72609;45.768;4.884;2023-12-28T13:52:24;11.80;77.60
82851;DHT22;72609;45.768;4.884;2023-12-28T13:54:49;11.80;77.30
82851;DHT22;72609;45.768;4.884;2023-12-28T13:57:15;11.80;77.20
82851;DHT22;72609;45.768;4.884;2023-12-28T13:59:41;11.80;77.80
82851;DHT22;72609;45.768;4.884;2023-12-28T14:02:06;11.80;77.40
82851;DHT22;72609;45.768;4.884;2023-12-28T14:04:32;11.80;77.50
82851;DHT22;72609;45.768;4.884;2023-12-28T14:06:57;11.80;77.50
82851;DHT22;72609;45.768;4.884;2023-12-28T14:09:23;11.70;77.40
82851;DHT22;72609;45.768;4.884;2023-12-28T14:11:49;11.70;77.40
82851;DHT22;72609;45.768;4.884;2023-12-28T14:14:14;11.80;76.80
82851;DHT22;72609;45.768;4.884;2023-12-28T14:16:40;11.80;76.70
82851;DHT22;72609;45.768;4.884;2023-12-28T14:19:06;11.80;77.40
82851;DHT22;72609;45.768;4.884;2023-12-28T14:21:38;11.80;76.90
82851;DHT22;72609;45.768;4.884;2023-12-28T14:24:04;11.80;76.90
82851;DHT22;72609;45.768;4.884;2023-12-28T14:26:32;11.70;76.70
82851;DHT22;72609;45.768;4.884;2023-12-28T14:28:59;11.70;76.70
82851;DHT22;72609;45.768;4.884;2023-12-28T14:31:25;11.70;75.90
82851;DHT22;72609;45.768;4.884;2023-12-28T14:33:54;11.70;75.20
82851;DHT22;72609;45.768;4.884;2023-12-28T14:38:59;11.80;75.50
82851;DHT22;72609;45.768;4.884;2023-12-28T14:41:25;11.70;75.30
82851;DHT22;72609;45.768;4.884;2023-12-28T14:43:51;11.80;75.70
82851;DHT22;72609;45.768;4.884;2023-12-28T14:46:16;11.70;75.90
82851;DHT22;72609;45.768;4.884;2023-12-28T14:48:42;11.70;75.90
82851;DHT22;72609;45.768;4.884;2023-12-28T14:51:07;11.70;76.20
82851;DHT22;72609;45.768;4.884;2023-12-28T14:53:33;11.70;76.30
82851;DHT22;72609;45.768;4.884;2023-12-28T14:55:59;11.70;76.50
82851;DHT22;72609;45.768;4.884;2023-12-28T14:58:25;11.70;76.50
82851;DHT22;72609;45.768;4.884;2023-12-28T15:00:52;11.70;76.70
82851;DHT22;72609;45.768;4.884;2023-12-28T15:03:17;11.70;76.50
82851;DHT22;72609;45.768;4.884;2023-12-28T15:05:43;11.70;76.50
82851;DHT22;72609;45.768;4.884;2023-12-28T15:08:09;11.70;77.20
82851;DHT22;72609;45.768;4.884;2023-12-28T15:10:34;11.70;76.50
82851;DHT22;72609;45.768;4.884;2023-12-28T15:13:01;11.70;76.80
82851;DHT22;72609;45.768;4.884;2023-12-28T15:15:27;11.70;76.60
82851;DHT22;72609;45.768;4.884;2023-12-28T15:17:53;11.70;76.70
82851;DHT22;72609;45.768;4.884;2023-12-28T15:20:19;11.70;76.70
82851;DHT22;72609;45.768;4.884;2023-12-28T15:22:45;11.70;76.60
82851;DHT22;72609;45.768;4.884;2023-12-28T15:25:11;11.70;76.70
82851;DHT22;72609;45.768;4.884;2023-12-28T15:27:37;11.70;76.40
82851;DHT22;72609;45.768;4.884;2023-12-28T15:30:03;11.70;76.20
82851;DHT22;72609;45.768;4.884;2023-12-28T15:32:31;11.60;76.20
82851;DHT22;72609;45.768;4.884;2023-12-28T15:34:56;11.70;76.00
82851;DHT22;72609;45.768;4.884;2023-12-28T15:37:22;11.60;75.90
82851;DHT22;72609;45.768;4.884;2023-12-28T15:39:48;11.60;75.60
82851;DHT22;72609;45.768;4.884;2023-12-28T15:42:14;11.60;75.20
82851;DHT22;72609;45.768;4.884;2023-12-28T15:44:39;11.60;75.30